South Barre, MA (01074)

9:19 AM EDT on May 05, 2015 (GMT -0400)
45 fuller rd barre,ma, 01005 | | Change Station
CLOSE
Current Station
Personal Weather Station
Location: Barre, MA
Elevation: 994 ft
Nearby Weather Stations

Elev 994 ft 42.40 °N, 72.14 °W | Updated 8 seconds ago

Mostly Cloudy
Mostly Cloudy
62.6 °F
Feels Like 62.6 °F
N
0.0
Wind Variable Wind from WSW
Gusts 0.0 mph

Today
High -- | Low -- °F
--% Chance of Precip.
Yesterday
High -- | Low -- °F
Precip. -- in
5:38 AM 7:52 PM
Full, 98% visible
Pressure 30.20 in
Visibility 10.0 miles
Clouds Overcast 10000 ft
Dew Point 59 °F
Humidity 87%
Rainfall 0.00 in
Snow Depth Not available.
UV 0.7 out of 12
Pollen 9.70 out of 12
Air Quality Not available.
Flu Activity Widespread
METAR KORH 051254Z 29006KT 10SM OVC100 16/12 A3020 RMK AO2 RAE49 SLP226 P0000 T01560122

More Conditions Fewer Conditions

Pressure 30.20 in
Visibility 10.0 miles
Clouds Overcast 10000 ft
Dew Point 59 °F
Humidity 87%
Rainfall 0.00 in
Snow Depth Not available.
UV 0.7 out of 12
Pollen 9.70 out of 12
Air Quality Not available.
Flu Activity Widespread
METAR KORH 051254Z 29006KT 10SM OVC100 16/12 A3020 RMK AO2 RAE49 SLP226 P0000 T01560122

More Conditions Fewer Conditions

Nepal has a long way to go to dig out and rebuild from a devastating earthquake. We have teamed up with several charities and organizations to make contributing to the relief effort as easy as possible.
How you can help: Portlight Strategies | Red Cross

10-Day Weather Forecast

Almanac

Astronomy

May. 05, 2015 Rise Set
Actual Time
Civil Twilight
Nautical Twilight
Astronomical Twilight
Moon
Length of Visible Light
Length of Day
Tomorrow will be .
, % of the Moon is Illuminated

Today's Extremes

State Highs State Lows

Community

WunderPhotos

Upload Photos

1,818,878 photos uploaded!

WunderBlogs® & News

Nearby

Air Quality

  Air Quality AQ Index Pollutant
Not available.

Snow Depth

Station Depth Elevation

Earthquake Activity

City Distance Mag. Time & Date
Minimum magnitude displayed is 2.5.

Coastal Water Temperatures

Place Temperature

Stations

Nearby Weather Stations

Station Location Temp. Windchill Dew Point Humidity Wind Precip. Elev Updated Type